sensor_id;sensor_type;location;lat;lon;timestamp;P1;durP1;ratioP1;P2;durP2;ratioP2
16612;SDS011;8419;52.358;9.752;2023-04-24T00:00:55;1.40;;;0.80;;
16612;SDS011;8419;52.358;9.752;2023-04-24T00:03:42;1.02;;;0.60;;
16612;SDS011;8419;52.358;9.752;2023-04-24T00:06:28;0.82;;;0.80;;
16612;SDS011;8419;52.358;9.752;2023-04-24T00:09:17;0.52;;;0.50;;
16612;SDS011;8419;52.358;9.752;2023-04-24T00:12:02;1.02;;;0.50;;
16612;SDS011;8419;52.358;9.752;2023-04-24T00:14:49;1.37;;;0.80;;
16612;SDS011;8419;52.358;9.752;2023-04-24T00:17:34;0.70;;;0.60;;
16612;SDS011;8419;52.358;9.752;2023-04-24T00:20:20;1.73;;;0.62;;
16612;SDS011;8419;52.358;9.752;2023-04-24T00:23:06;1.83;;;0.57;;
16612;SDS011;8419;52.358;9.752;2023-04-24T00:25:52;0.70;;;0.70;;
16612;SDS011;8419;52.358;9.752;2023-04-24T00:28:37;1.67;;;0.65;;
16612;SDS011;8419;52.358;9.752;2023-04-24T00:31:23;1.25;;;0.65;;
16612;SDS011;8419;52.358;9.752;2023-04-24T00:34:08;0.73;;;0.50;;
16612;SDS011;8419;52.358;9.752;2023-04-24T00:36:54;0.85;;;0.77;;
16612;SDS011;8419;52.358;9.752;2023-04-24T00:39:40;0.43;;;0.43;;
16612;SDS011;8419;52.358;9.752;2023-04-24T00:42:25;0.82;;;0.60;;
16612;SDS011;8419;52.358;9.752;2023-04-24T00:45:11;0.80;;;0.70;;
16612;SDS011;8419;52.358;9.752;2023-04-24T00:47:57;0.80;;;0.60;;
16612;SDS011;8419;52.358;9.752;2023-04-24T00:50:44;0.60;;;0.60;;
16612;SDS011;8419;52.358;9.752;2023-04-24T00:53:30;1.52;;;0.80;;
16612;SDS011;8419;52.358;9.752;2023-04-24T00:56:15;0.77;;;0.77;;
16612;SDS011;8419;52.358;9.752;2023-04-24T00:59:01;1.40;;;0.60;;
16612;SDS011;8419;52.358;9.752;2023-04-24T01:01:47;0.98;;;0.88;;
16612;SDS011;8419;52.358;9.752;2023-04-24T01:04:32;0.88;;;0.82;;
16612;SDS011;8419;52.358;9.752;2023-04-24T01:07:20;0.65;;;0.65;;
16612;SDS011;8419;52.358;9.752;2023-04-24T01:10:06;0.70;;;0.70;;
16612;SDS011;8419;52.358;9.752;2023-04-24T01:12:54;0.80;;;0.60;;
16612;SDS011;8419;52.358;9.752;2023-04-24T01:15:41;0.73;;;0.73;;
16612;SDS011;8419;52.358;9.752;2023-04-24T01:18:27;0.60;;;0.50;;
16612;SDS011;8419;52.358;9.752;2023-04-24T01:21:13;0.80;;;0.77;;
16612;SDS011;8419;52.358;9.752;2023-04-24T01:24:01;2.58;;;0.88;;
16612;SDS011;8419;52.358;9.752;2023-04-24T01:26:47;2.80;;;0.70;;
16612;SDS011;8419;52.358;9.752;2023-04-24T01:29:32;0.73;;;0.60;;
16612;SDS011;8419;52.358;9.752;2023-04-24T01:32:19;0.50;;;0.50;;
16612;SDS011;8419;52.358;9.752;2023-04-24T01:35:06;0.75;;;0.60;;
16612;SDS011;8419;52.358;9.752;2023-04-24T01:37:52;0.60;;;0.60;;
16612;SDS011;8419;52.358;9.752;2023-04-24T01:40:38;1.48;;;0.60;;
16612;SDS011;8419;52.358;9.752;2023-04-24T01:43:24;0.70;;;0.70;;
16612;SDS011;8419;52.358;9.752;2023-04-24T01:46:10;0.65;;;0.60;;
16612;SDS011;8419;52.358;9.752;2023-04-24T01:48:56;0.50;;;0.50;;
16612;SDS011;8419;52.358;9.752;2023-04-24T01:51:43;0.88;;;0.80;;
16612;SDS011;8419;52.358;9.752;2023-04-24T01:54:29;0.90;;;0.60;;
16612;SDS011;8419;52.358;9.752;2023-04-24T01:57:14;1.17;;;0.70;;
16612;SDS011;8419;52.358;9.752;2023-04-24T02:00:01;0.68;;;0.68;;
16612;SDS011;8419;52.358;9.752;2023-04-24T02:02:49;0.88;;;0.68;;
16612;SDS011;8419;52.358;9.752;2023-04-24T02:05:34;0.82;;;0.80;;
16612;SDS011;8419;52.358;9.752;2023-04-24T02:08:20;1.23;;;0.73;;
16612;SDS011;8419;52.358;9.752;2023-04-24T02:11:05;0.68;;;0.68;;
16612;SDS011;8419;52.358;9.752;2023-04-24T02:13:52;0.70;;;0.70;;
16612;SDS011;8419;52.358;9.752;2023-04-24T02:16:38;0.70;;;0.68;;
16612;SDS011;8419;52.358;9.752;2023-04-24T02:19:24;0.70;;;0.70;;
16612;SDS011;8419;52.358;9.752;2023-04-24T02:22:09;0.70;;;0.70;;
16612;SDS011;8419;52.358;9.752;2023-04-24T02:24:55;1.00;;;0.90;;
16612;SDS011;8419;52.358;9.752;2023-04-24T02:27:41;0.70;;;0.60;;
16612;SDS011;8419;52.358;9.752;2023-04-24T02:30:26;0.60;;;0.60;;
16612;SDS011;8419;52.358;9.752;2023-04-24T02:33:11;0.68;;;0.68;;
16612;SDS011;8419;52.358;9.752;2023-04-24T02:35:57;1.10;;;0.73;;
16612;SDS011;8419;52.358;9.752;2023-04-24T02:38:42;0.75;;;0.73;;
16612;SDS011;8419;52.358;9.752;2023-04-24T02:41:28;0.60;;;0.60;;
16612;SDS011;8419;52.358;9.752;2023-04-24T02:44:16;0.80;;;0.77;;
16612;SDS011;8419;52.358;9.752;2023-04-24T02:47:01;0.90;;;0.80;;
16612;SDS011;8419;52.358;9.752;2023-04-24T02:49:47;0.50;;;0.50;;
16612;SDS011;8419;52.358;9.752;2023-04-24T02:52:33;1.75;;;0.70;;
16612;SDS011;8419;52.358;9.752;2023-04-24T02:55:19;2.25;;;0.68;;
16612;SDS011;8419;52.358;9.752;2023-04-24T02:58:04;0.80;;;0.70;;
16612;SDS011;8419;52.358;9.752;2023-04-24T03:00:54;2.45;;;0.60;;
16612;SDS011;8419;52.358;9.752;2023-04-24T03:03:39;2.05;;;0.70;;
16612;SDS011;8419;52.358;9.752;2023-04-24T03:06:25;1.08;;;0.68;;
16612;SDS011;8419;52.358;9.752;2023-04-24T03:09:11;0.40;;;0.40;;
16612;SDS011;8419;52.358;9.752;2023-04-24T03:11:57;0.60;;;0.60;;
16612;SDS011;8419;52.358;9.752;2023-04-24T03:14:42;2.47;;;0.70;;
16612;SDS011;8419;52.358;9.752;2023-04-24T03:17:28;0.60;;;0.40;;
16612;SDS011;8419;52.358;9.752;2023-04-24T03:20:14;0.77;;;0.70;;
16612;SDS011;8419;52.358;9.752;2023-04-24T03:23:00;0.70;;;0.70;;
16612;SDS011;8419;52.358;9.752;2023-04-24T03:25:47;0.73;;;0.68;;
16612;SDS011;8419;52.358;9.752;2023-04-24T03:28:32;0.80;;;0.50;;
16612;SDS011;8419;52.358;9.752;2023-04-24T03:31:18;0.65;;;0.50;;
16612;SDS011;8419;52.358;9.752;2023-04-24T03:34:05;0.65;;;0.60;;
16612;SDS011;8419;52.358;9.752;2023-04-24T03:36:51;0.60;;;0.60;;
16612;SDS011;8419;52.358;9.752;2023-04-24T03:39:36;0.40;;;0.40;;
16612;SDS011;8419;52.358;9.752;2023-04-24T03:42:22;0.60;;;0.60;;
16612;SDS011;8419;52.358;9.752;2023-04-24T03:45:08;1.00;;;0.80;;
16612;SDS011;8419;52.358;9.752;2023-04-24T03:47:54;1.65;;;0.55;;
16612;SDS011;8419;52.358;9.752;2023-04-24T03:50:40;1.15;;;0.60;;
16612;SDS011;8419;52.358;9.752;2023-04-24T03:53:25;0.90;;;0.70;;
16612;SDS011;8419;52.358;9.752;2023-04-24T03:56:11;0.57;;;0.57;;
16612;SDS011;8419;52.358;9.752;2023-04-24T03:58:56;0.93;;;0.68;;
16612;SDS011;8419;52.358;9.752;2023-04-24T04:01:43;0.70;;;0.62;;
16612;SDS011;8419;52.358;9.752;2023-04-24T04:04:31;0.50;;;0.50;;
16612;SDS011;8419;52.358;9.752;2023-04-24T04:07:16;0.73;;;0.60;;
16612;SDS011;8419;52.358;9.752;2023-04-24T04:10:03;0.95;;;0.73;;
16612;SDS011;8419;52.358;9.752;2023-04-24T04:12:52;0.40;;;0.40;;
16612;SDS011;8419;52.358;9.752;2023-04-24T04:15:38;0.60;;;0.60;;
16612;SDS011;8419;52.358;9.752;2023-04-24T04:18:23;0.57;;;0.57;;
16612;SDS011;8419;52.358;9.752;2023-04-24T04:21:09;0.70;;;0.70;;
16612;SDS011;8419;52.358;9.752;2023-04-24T04:23:55;0.77;;;0.57;;
16612;SDS011;8419;52.358;9.752;2023-04-24T04:26:41;0.62;;;0.60;;
16612;SDS011;8419;52.358;9.752;2023-04-24T04:29:31;0.52;;;0.47;;
16612;SDS011;8419;52.358;9.752;2023-04-24T04:32:17;2.67;;;0.50;;
16612;SDS011;8419;52.358;9.752;2023-04-24T04:35:02;0.80;;;0.60;;
16612;SDS011;8419;52.358;9.752;2023-04-24T04:37:49;1.62;;;0.70;;
16612;SDS011;8419;52.358;9.752;2023-04-24T04:40:35;0.82;;;0.60;;
16612;SDS011;8419;52.358;9.752;2023-04-24T04:43:21;2.78;;;0.70;;
16612;SDS011;8419;52.358;9.752;2023-04-24T04:46:06;0.60;;;0.60;;
16612;SDS011;8419;52.358;9.752;2023-04-24T04:48:55;1.50;;;0.80;;
16612;SDS011;8419;52.358;9.752;2023-04-24T04:51:41;0.50;;;0.50;;
16612;SDS011;8419;52.358;9.752;2023-04-24T04:54:27;0.60;;;0.60;;
16612;SDS011;8419;52.358;9.752;2023-04-24T04:57:12;0.80;;;0.50;;
16612;SDS011;8419;52.358;9.752;2023-04-24T04:59:58;4.65;;;0.52;;
16612;SDS011;8419;52.358;9.752;2023-04-24T05:02:44;0.65;;;0.55;;
16612;SDS011;8419;52.358;9.752;2023-04-24T05:05:29;0.60;;;0.60;;
16612;SDS011;8419;52.358;9.752;2023-04-24T05:08:14;0.57;;;0.50;;
16612;SDS011;8419;52.358;9.752;2023-04-24T05:11:00;0.60;;;0.60;;
16612;SDS011;8419;52.358;9.752;2023-04-24T05:13:45;1.05;;;0.50;;
16612;SDS011;8419;52.358;9.752;2023-04-24T05:16:30;0.88;;;0.77;;
16612;SDS011;8419;52.358;9.752;2023-04-24T05:19:16;1.08;;;0.60;;
16612;SDS011;8419;52.358;9.752;2023-04-24T05:22:02;1.10;;;0.60;;
16612;SDS011;8419;52.358;9.752;2023-04-24T05:24:49;0.70;;;0.60;;
16612;SDS011;8419;52.358;9.752;2023-04-24T05:27:34;0.60;;;0.60;;
16612;SDS011;8419;52.358;9.752;2023-04-24T05:30:20;0.70;;;0.70;;
16612;SDS011;8419;52.358;9.752;2023-04-24T05:33:06;0.68;;;0.68;;
16612;SDS011;8419;52.358;9.752;2023-04-24T05:35:52;2.67;;;1.50;;
16612;SDS011;8419;52.358;9.752;2023-04-24T05:38:38;1.05;;;0.77;;
16612;SDS011;8419;52.358;9.752;2023-04-24T05:41:23;0.85;;;0.80;;
16612;SDS011;8419;52.358;9.752;2023-04-24T05:44:09;1.27;;;0.60;;
16612;SDS011;8419;52.358;9.752;2023-04-24T05:46:55;1.58;;;1.00;;
16612;SDS011;8419;52.358;9.752;2023-04-24T05:49:41;1.92;;;0.77;;
16612;SDS011;8419;52.358;9.752;2023-04-24T05:52:28;0.90;;;0.70;;
16612;SDS011;8419;52.358;9.752;2023-04-24T05:55:14;1.65;;;1.27;;
16612;SDS011;8419;52.358;9.752;2023-04-24T05:58:01;0.90;;;0.90;;
16612;SDS011;8419;52.358;9.752;2023-04-24T06:00:47;1.15;;;0.88;;
16612;SDS011;8419;52.358;9.752;2023-04-24T06:03:34;1.87;;;0.82;;
16612;SDS011;8419;52.358;9.752;2023-04-24T06:06:20;1.10;;;0.90;;
16612;SDS011;8419;52.358;9.752;2023-04-24T06:09:05;1.25;;;0.80;;
16612;SDS011;8419;52.358;9.752;2023-04-24T06:11:50;1.70;;;0.73;;
16612;SDS011;8419;52.358;9.752;2023-04-24T06:14:37;0.80;;;0.80;;
16612;SDS011;8419;52.358;9.752;2023-04-24T06:17:22;2.58;;;0.70;;
16612;SDS011;8419;52.358;9.752;2023-04-24T06:20:08;0.90;;;0.70;;
16612;SDS011;8419;52.358;9.752;2023-04-24T06:22:56;0.37;;;0.37;;
16612;SDS011;8419;52.358;9.752;2023-04-24T06:25:42;0.70;;;0.70;;
16612;SDS011;8419;52.358;9.752;2023-04-24T06:28:29;1.67;;;0.80;;
16612;SDS011;8419;52.358;9.752;2023-04-24T06:31:15;1.37;;;0.90;;
16612;SDS011;8419;52.358;9.752;2023-04-24T06:34:03;1.30;;;0.90;;
16612;SDS011;8419;52.358;9.752;2023-04-24T06:36:51;1.75;;;0.90;;
16612;SDS011;8419;52.358;9.752;2023-04-24T06:39:42;2.33;;;0.98;;
16612;SDS011;8419;52.358;9.752;2023-04-24T06:42:28;1.50;;;1.40;;
16612;SDS011;8419;52.358;9.752;2023-04-24T06:45:13;1.42;;;1.25;;
16612;SDS011;8419;52.358;9.752;2023-04-24T06:47:59;1.55;;;1.37;;
16612;SDS011;8419;52.358;9.752;2023-04-24T06:50:44;2.25;;;1.30;;
16612;SDS011;8419;52.358;9.752;2023-04-24T06:53:31;3.45;;;1.75;;
16612;SDS011;8419;52.358;9.752;2023-04-24T06:56:16;1.45;;;1.10;;
16612;SDS011;8419;52.358;9.752;2023-04-24T06:59:02;1.67;;;1.50;;
16612;SDS011;8419;52.358;9.752;2023-04-24T07:01:47;2.60;;;1.95;;
16612;SDS011;8419;52.358;9.752;2023-04-24T07:04:33;3.00;;;2.30;;
16612;SDS011;8419;52.358;9.752;2023-04-24T07:07:18;1.92;;;1.77;;
16612;SDS011;8419;52.358;9.752;2023-04-24T07:10:05;2.37;;;2.15;;
16612;SDS011;8419;52.358;9.752;2023-04-24T07:12:52;2.58;;;2.22;;
16612;SDS011;8419;52.358;9.752;2023-04-24T07:15:41;2.03;;;1.70;;
16612;SDS011;8419;52.358;9.752;2023-04-24T07:18:27;5.37;;;2.28;;
16612;SDS011;8419;52.358;9.752;2023-04-24T07:21:12;2.78;;;2.47;;
16612;SDS011;8419;52.358;9.752;2023-04-24T07:23:57;8.18;;;2.65;;
16612;SDS011;8419;52.358;9.752;2023-04-24T07:26:43;3.53;;;2.08;;
16612;SDS011;8419;52.358;9.752;2023-04-24T07:29:29;4.55;;;2.70;;
16612;SDS011;8419;52.358;9.752;2023-04-24T07:32:15;2.80;;;2.53;;
16612;SDS011;8419;52.358;9.752;2023-04-24T07:35:05;4.72;;;2.83;;
16612;SDS011;8419;52.358;9.752;2023-04-24T07:37:53;2.22;;;1.85;;
16612;SDS011;8419;52.358;9.752;2023-04-24T07:40:38;2.28;;;1.70;;
16612;SDS011;8419;52.358;9.752;2023-04-24T07:43:24;3.75;;;3.10;;
16612;SDS011;8419;52.358;9.752;2023-04-24T07:46:11;3.33;;;2.37;;
16612;SDS011;8419;52.358;9.752;2023-04-24T07:48:56;4.75;;;2.45;;
16612;SDS011;8419;52.358;9.752;2023-04-24T07:51:43;4.80;;;3.33;;
16612;SDS011;8419;52.358;9.752;2023-04-24T07:54:29;4.95;;;3.67;;
16612;SDS011;8419;52.358;9.752;2023-04-24T07:57:15;5.43;;;2.85;;
16612;SDS011;8419;52.358;9.752;2023-04-24T08:00:00;4.00;;;3.53;;
16612;SDS011;8419;52.358;9.752;2023-04-24T08:02:46;4.87;;;3.00;;
16612;SDS011;8419;52.358;9.752;2023-04-24T08:05:31;3.80;;;3.30;;
16612;SDS011;8419;52.358;9.752;2023-04-24T08:08:17;9.13;;;4.18;;
16612;SDS011;8419;52.358;9.752;2023-04-24T08:11:05;5.57;;;3.60;;
16612;SDS011;8419;52.358;9.752;2023-04-24T08:13:50;3.62;;;3.33;;
16612;SDS011;8419;52.358;9.752;2023-04-24T08:16:36;3.92;;;3.53;;
16612;SDS011;8419;52.358;9.752;2023-04-24T08:19:21;4.40;;;3.83;;
16612;SDS011;8419;52.358;9.752;2023-04-24T08:22:07;4.10;;;3.65;;
16612;SDS011;8419;52.358;9.752;2023-04-24T08:24:52;6.28;;;4.22;;
16612;SDS011;8419;52.358;9.752;2023-04-24T08:27:38;3.05;;;2.60;;
16612;SDS011;8419;52.358;9.752;2023-04-24T08:30:26;3.55;;;2.83;;
16612;SDS011;8419;52.358;9.752;2023-04-24T08:33:11;3.78;;;3.15;;
16612;SDS011;8419;52.358;9.752;2023-04-24T08:35:57;5.18;;;4.03;;
16612;SDS011;8419;52.358;9.752;2023-04-24T08:38:44;5.40;;;3.83;;
16612;SDS011;8419;52.358;9.752;2023-04-24T08:41:34;4.82;;;3.50;;
16612;SDS011;8419;52.358;9.752;2023-04-24T08:44:29;4.72;;;3.10;;
16612;SDS011;8419;52.358;9.752;2023-04-24T08:47:18;3.80;;;3.33;;
16612;SDS011;8419;52.358;9.752;2023-04-24T08:50:06;5.47;;;3.55;;
16612;SDS011;8419;52.358;9.752;2023-04-24T08:52:53;5.00;;;3.30;;
16612;SDS011;8419;52.358;9.752;2023-04-24T08:55:40;3.50;;;2.87;;
16612;SDS011;8419;52.358;9.752;2023-04-24T08:58:28;1.62;;;1.52;;
16612;SDS011;8419;52.358;9.752;2023-04-24T09:01:14;3.67;;;2.30;;
16612;SDS011;8419;52.358;9.752;2023-04-24T09:04:00;1.25;;;1.20;;
16612;SDS011;8419;52.358;9.752;2023-04-24T09:06:48;4.65;;;2.60;;
16612;SDS011;8419;52.358;9.752;2023-04-24T09:09:44;2.17;;;1.98;;
16612;SDS011;8419;52.358;9.752;2023-04-24T09:12:30;1.73;;;1.35;;
16612;SDS011;8419;52.358;9.752;2023-04-24T09:15:17;2.78;;;2.15;;
16612;SDS011;8419;52.358;9.752;2023-04-24T09:18:02;1.67;;;1.55;;
16612;SDS011;8419;52.358;9.752;2023-04-24T09:20:57;1.95;;;1.60;;
16612;SDS011;8419;52.358;9.752;2023-04-24T09:23:44;1.90;;;1.45;;
16612;SDS011;8419;52.358;9.752;2023-04-24T09:26:30;3.45;;;2.08;;
16612;SDS011;8419;52.358;9.752;2023-04-24T09:29:17;5.18;;;1.92;;
16612;SDS011;8419;52.358;9.752;2023-04-24T09:32:18;0.90;;;0.90;;
16612;SDS011;8419;52.358;9.752;2023-04-24T09:35:06;2.20;;;2.00;;
16612;SDS011;8419;52.358;9.752;2023-04-24T09:37:54;2.22;;;2.03;;
16612;SDS011;8419;52.358;9.752;2023-04-24T09:40:42;3.00;;;2.17;;
16612;SDS011;8419;52.358;9.752;2023-04-24T09:43:28;2.85;;;2.33;;
16612;SDS011;8419;52.358;9.752;2023-04-24T09:46:13;3.03;;;2.70;;
16612;SDS011;8419;52.358;9.752;2023-04-24T09:49:02;2.25;;;2.05;;
16612;SDS011;8419;52.358;9.752;2023-04-24T09:52:02;4.22;;;2.47;;
16612;SDS011;8419;52.358;9.752;2023-04-24T09:54:52;2.50;;;2.00;;
16612;SDS011;8419;52.358;9.752;2023-04-24T09:57:46;4.20;;;2.33;;
16612;SDS011;8419;52.358;9.752;2023-04-24T10:00:33;3.42;;;2.12;;
16612;SDS011;8419;52.358;9.752;2023-04-24T10:03:19;2.17;;;1.98;;
16612;SDS011;8419;52.358;9.752;2023-04-24T10:06:08;2.83;;;1.80;;
16612;SDS011;8419;52.358;9.752;2023-04-24T10:08:58;2.35;;;2.10;;
16612;SDS011;8419;52.358;9.752;2023-04-24T10:11:48;2.50;;;2.30;;
16612;SDS011;8419;52.358;9.752;2023-04-24T10:14:35;3.55;;;2.55;;
16612;SDS011;8419;52.358;9.752;2023-04-24T10:17:21;3.30;;;1.98;;
16612;SDS011;8419;52.358;9.752;2023-04-24T10:20:08;4.22;;;2.60;;
16612;SDS011;8419;52.358;9.752;2023-04-24T10:22:55;2.40;;;2.20;;
16612;SDS011;8419;52.358;9.752;2023-04-24T10:25:44;2.15;;;1.25;;
16612;SDS011;8419;52.358;9.752;2023-04-24T10:28:35;2.90;;;2.10;;
16612;SDS011;8419;52.358;9.752;2023-04-24T10:31:22;2.10;;;1.90;;
16612;SDS011;8419;52.358;9.752;2023-04-24T10:34:09;2.05;;;1.85;;
16612;SDS011;8419;52.358;9.752;2023-04-24T10:36:55;2.75;;;2.17;;
16612;SDS011;8419;52.358;9.752;2023-04-24T10:39:41;2.37;;;1.83;;
16612;SDS011;8419;52.358;9.752;2023-04-24T10:42:36;3.35;;;2.20;;
16612;SDS011;8419;52.358;9.752;2023-04-24T10:45:27;1.87;;;1.42;;
16612;SDS011;8419;52.358;9.752;2023-04-24T10:48:14;2.45;;;1.87;;
16612;SDS011;8419;52.358;9.752;2023-04-24T10:51:00;1.87;;;1.48;;
16612;SDS011;8419;52.358;9.752;2023-04-24T10:53:46;1.73;;;1.60;;
16612;SDS011;8419;52.358;9.752;2023-04-24T10:56:33;1.98;;;1.80;;
16612;SDS011;8419;52.358;9.752;2023-04-24T10:59:25;3.05;;;2.20;;
16612;SDS011;8419;52.358;9.752;2023-04-24T11:02:13;1.75;;;1.65;;
16612;SDS011;8419;52.358;9.752;2023-04-24T11:05:00;2.20;;;1.65;;
16612;SDS011;8419;52.358;9.752;2023-04-24T11:10:57;1.80;;;1.30;;
16612;SDS011;8419;52.358;9.752;2023-04-24T11:14:07;1.52;;;1.42;;
16612;SDS011;8419;52.358;9.752;2023-04-24T11:16:53;4.37;;;1.50;;
16612;SDS011;8419;52.358;9.752;2023-04-24T11:19:39;1.33;;;1.00;;
16612;SDS011;8419;52.358;9.752;2023-04-24T11:22:25;0.82;;;0.82;;
16612;SDS011;8419;52.358;9.752;2023-04-24T11:25:13;3.33;;;1.48;;
16612;SDS011;8419;52.358;9.752;2023-04-24T11:28:04;1.40;;;1.23;;
16612;SDS011;8419;52.358;9.752;2023-04-24T11:30:51;0.80;;;0.80;;
16612;SDS011;8419;52.358;9.752;2023-04-24T11:33:37;1.55;;;1.12;;
16612;SDS011;8419;52.358;9.752;2023-04-24T11:36:22;1.35;;;1.20;;
16612;SDS011;8419;52.358;9.752;2023-04-24T11:39:08;1.52;;;1.08;;
16612;SDS011;8419;52.358;9.752;2023-04-24T11:41:54;3.97;;;1.27;;
16612;SDS011;8419;52.358;9.752;2023-04-24T11:44:47;1.25;;;0.95;;
16612;SDS011;8419;52.358;9.752;2023-04-24T11:47:34;1.30;;;1.05;;
16612;SDS011;8419;52.358;9.752;2023-04-24T11:50:20;0.68;;;0.68;;
16612;SDS011;8419;52.358;9.752;2023-04-24T11:53:07;1.05;;;0.88;;
16612;SDS011;8419;52.358;9.752;2023-04-24T11:55:54;0.90;;;0.77;;
16612;SDS011;8419;52.358;9.752;2023-04-24T11:58:40;0.80;;;0.80;;
16612;SDS011;8419;52.358;9.752;2023-04-24T12:01:26;0.98;;;0.80;;
16612;SDS011;8419;52.358;9.752;2023-04-24T12:04:12;0.90;;;0.82;;
16612;SDS011;8419;52.358;9.752;2023-04-24T12:07:01;0.75;;;0.68;;
16612;SDS011;8419;52.358;9.752;2023-04-24T12:09:49;0.82;;;0.82;;
16612;SDS011;8419;52.358;9.752;2023-04-24T12:12:40;0.55;;;0.52;;
16612;SDS011;8419;52.358;9.752;2023-04-24T12:15:26;0.57;;;0.55;;
16612;SDS011;8419;52.358;9.752;2023-04-24T12:18:12;0.40;;;0.40;;
16612;SDS011;8419;52.358;9.752;2023-04-24T12:21:19;1.48;;;0.73;;
16612;SDS011;8419;52.358;9.752;2023-04-24T12:24:06;0.60;;;0.60;;
16612;SDS011;8419;52.358;9.752;2023-04-24T12:26:51;1.10;;;0.55;;
16612;SDS011;8419;52.358;9.752;2023-04-24T12:29:37;0.50;;;0.50;;
16612;SDS011;8419;52.358;9.752;2023-04-24T12:32:40;0.70;;;0.60;;
16612;SDS011;8419;52.358;9.752;2023-04-24T12:35:27;0.85;;;0.68;;
16612;SDS011;8419;52.358;9.752;2023-04-24T12:38:15;2.60;;;0.70;;
16612;SDS011;8419;52.358;9.752;2023-04-24T12:41:07;1.80;;;0.70;;
16612;SDS011;8419;52.358;9.752;2023-04-24T12:43:54;0.68;;;0.68;;
16612;SDS011;8419;52.358;9.752;2023-04-24T12:46:40;3.95;;;0.82;;
16612;SDS011;8419;52.358;9.752;2023-04-24T12:49:25;0.60;;;0.60;;
16612;SDS011;8419;52.358;9.752;2023-04-24T12:52:11;0.82;;;0.73;;
16612;SDS011;8419;52.358;9.752;2023-04-24T12:54:57;1.60;;;0.80;;
16612;SDS011;8419;52.358;9.752;2023-04-24T12:57:43;0.80;;;0.80;;
16612;SDS011;8419;52.358;9.752;2023-04-24T13:00:29;0.82;;;0.82;;
16612;SDS011;8419;52.358;9.752;2023-04-24T13:03:14;0.80;;;0.80;;
16612;SDS011;8419;52.358;9.752;2023-04-24T13:06:00;0.57;;;0.57;;
16612;SDS011;8419;52.358;9.752;2023-04-24T13:08:46;0.95;;;0.62;;
16612;SDS011;8419;52.358;9.752;2023-04-24T13:11:32;0.43;;;0.43;;
16612;SDS011;8419;52.358;9.752;2023-04-24T13:14:17;0.40;;;0.40;;
16612;SDS011;8419;52.358;9.752;2023-04-24T13:17:03;1.67;;;0.60;;
16612;SDS011;8419;52.358;9.752;2023-04-24T13:19:50;1.10;;;1.00;;
16612;SDS011;8419;52.358;9.752;2023-04-24T13:22:36;1.12;;;1.02;;
16612;SDS011;8419;52.358;9.752;2023-04-24T13:25:21;0.50;;;0.50;;
16612;SDS011;8419;52.358;9.752;2023-04-24T13:28:09;0.45;;;0.45;;
16612;SDS011;8419;52.358;9.752;2023-04-24T13:30:54;1.35;;;1.10;;
16612;SDS011;8419;52.358;9.752;2023-04-24T13:33:40;1.27;;;0.77;;
16612;SDS011;8419;52.358;9.752;2023-04-24T13:36:25;0.45;;;0.45;;
16612;SDS011;8419;52.358;9.752;2023-04-24T13:39:10;0.68;;;0.68;;
16612;SDS011;8419;52.358;9.752;2023-04-24T13:41:56;0.50;;;0.50;;
16612;SDS011;8419;52.358;9.752;2023-04-24T13:44:42;0.88;;;0.62;;
16612;SDS011;8419;52.358;9.752;2023-04-24T13:47:27;0.32;;;0.30;;
16612;SDS011;8419;52.358;9.752;2023-04-24T13:50:13;0.30;;;0.30;;
16612;SDS011;8419;52.358;9.752;2023-04-24T13:52:59;0.50;;;0.50;;
16612;SDS011;8419;52.358;9.752;2023-04-24T13:55:46;0.30;;;0.30;;
16612;SDS011;8419;52.358;9.752;2023-04-24T13:58:38;1.20;;;0.40;;
16612;SDS011;8419;52.358;9.752;2023-04-24T14:01:24;0.60;;;0.52;;
16612;SDS011;8419;52.358;9.752;2023-04-24T14:04:10;0.40;;;0.40;;
16612;SDS011;8419;52.358;9.752;2023-04-24T14:06:56;0.25;;;0.25;;
16612;SDS011;8419;52.358;9.752;2023-04-24T14:09:41;0.82;;;0.55;;
16612;SDS011;8419;52.358;9.752;2023-04-24T14:12:27;0.80;;;0.50;;
16612;SDS011;8419;52.358;9.752;2023-04-24T14:15:12;0.60;;;0.60;;
16612;SDS011;8419;52.358;9.752;2023-04-24T14:17:58;0.45;;;0.45;;
16612;SDS011;8419;52.358;9.752;2023-04-24T14:20:43;0.70;;;0.70;;
16612;SDS011;8419;52.358;9.752;2023-04-24T14:23:29;0.80;;;0.80;;
16612;SDS011;8419;52.358;9.752;2023-04-24T14:26:14;0.62;;;0.62;;
16612;SDS011;8419;52.358;9.752;2023-04-24T14:29:00;0.80;;;0.77;;
16612;SDS011;8419;52.358;9.752;2023-04-24T14:31:45;0.98;;;0.85;;
16612;SDS011;8419;52.358;9.752;2023-04-24T14:34:34;1.20;;;1.10;;
16612;SDS011;8419;52.358;9.752;2023-04-24T14:37:21;1.55;;;1.20;;
16612;SDS011;8419;52.358;9.752;2023-04-24T14:40:10;1.00;;;0.82;;
16612;SDS011;8419;52.358;9.752;2023-04-24T14:42:56;0.62;;;0.57;;
16612;SDS011;8419;52.358;9.752;2023-04-24T14:45:42;2.70;;;1.40;;
16612;SDS011;8419;52.358;9.752;2023-04-24T14:48:28;1.12;;;0.82;;
16612;SDS011;8419;52.358;9.752;2023-04-24T14:51:14;2.90;;;0.60;;
16612;SDS011;8419;52.358;9.752;2023-04-24T14:53:59;2.17;;;1.67;;
16612;SDS011;8419;52.358;9.752;2023-04-24T14:56:45;2.35;;;1.40;;
16612;SDS011;8419;52.358;9.752;2023-04-24T14:59:30;3.65;;;1.08;;
16612;SDS011;8419;52.358;9.752;2023-04-24T15:02:15;2.85;;;1.83;;
16612;SDS011;8419;52.358;9.752;2023-04-24T15:05:04;2.22;;;1.10;;
16612;SDS011;8419;52.358;9.752;2023-04-24T15:07:51;2.75;;;1.90;;
16612;SDS011;8419;52.358;9.752;2023-04-24T15:10:36;4.00;;;1.80;;
16612;SDS011;8419;52.358;9.752;2023-04-24T15:13:22;3.83;;;1.90;;
16612;SDS011;8419;52.358;9.752;2023-04-24T15:16:08;2.30;;;1.52;;
16612;SDS011;8419;52.358;9.752;2023-04-24T15:18:53;4.45;;;2.60;;
16612;SDS011;8419;52.358;9.752;2023-04-24T15:21:40;7.35;;;2.55;;
16612;SDS011;8419;52.358;9.752;2023-04-24T15:24:27;2.62;;;2.37;;
16612;SDS011;8419;52.358;9.752;2023-04-24T15:27:15;3.22;;;2.62;;
16612;SDS011;8419;52.358;9.752;2023-04-24T15:30:01;2.12;;;2.00;;
16612;SDS011;8419;52.358;9.752;2023-04-24T15:32:47;4.37;;;2.00;;
16612;SDS011;8419;52.358;9.752;2023-04-24T15:35:32;5.35;;;2.60;;
16612;SDS011;8419;52.358;9.752;2023-04-24T15:38:18;3.83;;;2.58;;
16612;SDS011;8419;52.358;9.752;2023-04-24T15:41:04;2.97;;;2.05;;
16612;SDS011;8419;52.358;9.752;2023-04-24T15:43:49;1.35;;;1.23;;
16612;SDS011;8419;52.358;9.752;2023-04-24T15:46:35;4.28;;;2.65;;
16612;SDS011;8419;52.358;9.752;2023-04-24T15:49:20;3.62;;;2.20;;
16612;SDS011;8419;52.358;9.752;2023-04-24T15:52:06;2.25;;;1.50;;
16612;SDS011;8419;52.358;9.752;2023-04-24T15:54:54;4.00;;;2.60;;
16612;SDS011;8419;52.358;9.752;2023-04-24T15:57:39;16.35;;;2.50;;
16612;SDS011;8419;52.358;9.752;2023-04-24T16:00:26;4.35;;;1.87;;
16612;SDS011;8419;52.358;9.752;2023-04-24T16:03:18;5.90;;;3.28;;
16612;SDS011;8419;52.358;9.752;2023-04-24T16:06:07;4.72;;;2.28;;
16612;SDS011;8419;52.358;9.752;2023-04-24T16:08:53;6.43;;;2.78;;
16612;SDS011;8419;52.358;9.752;2023-04-24T16:11:38;5.05;;;2.62;;
16612;SDS011;8419;52.358;9.752;2023-04-24T16:14:24;5.20;;;2.80;;
16612;SDS011;8419;52.358;9.752;2023-04-24T16:17:10;4.00;;;2.78;;
16612;SDS011;8419;52.358;9.752;2023-04-24T16:19:55;4.25;;;2.50;;
16612;SDS011;8419;52.358;9.752;2023-04-24T16:22:40;5.18;;;2.40;;
16612;SDS011;8419;52.358;9.752;2023-04-24T16:25:28;2.92;;;2.20;;
16612;SDS011;8419;52.358;9.752;2023-04-24T16:28:14;1.90;;;1.33;;
16612;SDS011;8419;52.358;9.752;2023-04-24T16:31:00;6.35;;;2.80;;
16612;SDS011;8419;52.358;9.752;2023-04-24T16:33:46;3.45;;;2.47;;
16612;SDS011;8419;52.358;9.752;2023-04-24T16:36:31;3.87;;;1.95;;
16612;SDS011;8419;52.358;9.752;2023-04-24T16:39:19;4.32;;;2.50;;
16612;SDS011;8419;52.358;9.752;2023-04-24T16:42:05;2.50;;;1.58;;
16612;SDS011;8419;52.358;9.752;2023-04-24T16:44:51;4.37;;;2.37;;
16612;SDS011;8419;52.358;9.752;2023-04-24T16:47:36;5.25;;;2.75;;
16612;SDS011;8419;52.358;9.752;2023-04-24T16:50:22;3.60;;;2.30;;
16612;SDS011;8419;52.358;9.752;2023-04-24T16:53:08;4.10;;;1.95;;
16612;SDS011;8419;52.358;9.752;2023-04-24T16:55:54;1.98;;;1.33;;
16612;SDS011;8419;52.358;9.752;2023-04-24T16:58:39;2.40;;;1.70;;
16612;SDS011;8419;52.358;9.752;2023-04-24T17:01:25;4.93;;;1.90;;